createdAt,value
2017-09-17T00:00:15.330Z,938
2017-09-17T00:00:43.391Z,938.02
2017-09-17T00:01:11.491Z,937.97
2017-09-17T00:01:39.797Z,937.95
2017-09-17T00:02:08.257Z,938.01
2017-09-17T00:02:36.763Z,937.98
2017-09-17T00:03:05.872Z,938.02
2017-09-17T00:03:33.945Z,938.02
2017-09-17T00:04:01.941Z,938.04
2017-09-17T00:04:30.439Z,937.99
2017-09-17T00:04:58.922Z,938.01
2017-09-17T00:05:27.153Z,938.04
2017-09-17T00:05:55.382Z,938.03
2017-09-17T00:06:23.758Z,938.05
2017-09-17T00:06:51.862Z,938.04
2017-09-17T00:07:20.151Z,938.08
2017-09-17T00:07:48.536Z,938.05
2017-09-17T00:08:16.549Z,938.05
2017-09-17T00:08:44.706Z,938.05
2017-09-17T00:09:12.734Z,938.06
2017-09-17T00:09:40.726Z,938.03
2017-09-17T00:10:08.738Z,938.04
2017-09-17T00:10:37.012Z,938.05
2017-09-17T00:11:05.304Z,938.03
2017-09-17T00:11:33.637Z,938.05
2017-09-17T00:12:02.308Z,938.03
2017-09-17T00:12:30.764Z,938.04
2017-09-17T00:12:59.097Z,938.03
2017-09-17T00:13:27.398Z,938.01
2017-09-17T00:13:55.130Z,938.04
2017-09-17T00:14:23.247Z,938.05
2017-09-17T00:14:51.407Z,938.05
2017-09-17T00:15:19.396Z,938.08
2017-09-17T00:15:47.413Z,938.07
2017-09-17T00:16:15.434Z,938.06
2017-09-17T00:16:43.556Z,938.06
2017-09-17T00:17:11.642Z,938.05
2017-09-17T00:17:39.555Z,938.08
2017-09-17T00:18:07.723Z,938.05
2017-09-17T00:18:35.873Z,938.07
2017-09-17T00:19:03.829Z,938.08
2017-09-17T00:19:31.872Z,938.07
2017-09-17T00:20:00.006Z,938.05
2017-09-17T00:20:28.113Z,938.11
2017-09-17T00:20:56.284Z,938.07
2017-09-17T00:21:24.401Z,938.07
2017-09-17T00:21:52.300Z,938.07
2017-09-17T00:22:20.323Z,938.05
2017-09-17T00:22:48.252Z,938.05
2017-09-17T00:23:16.293Z,938.07
2017-09-17T00:23:44.638Z,938.05
2017-09-17T00:24:12.760Z,938.02
2017-09-17T00:24:40.938Z,938.06
2017-09-17T00:25:09.398Z,938.02
2017-09-17T00:25:37.788Z,938.01
2017-09-17T00:26:06.164Z,938.03
2017-09-17T00:26:34.558Z,938.01
2017-09-17T00:27:03.182Z,938
2017-09-17T00:27:31.456Z,937.99
2017-09-17T00:27:59.593Z,937.99
2017-09-17T00:28:27.695Z,937.97
2017-09-17T00:28:55.987Z,937.96
2017-09-17T00:29:24.125Z,937.99
2017-09-17T00:29:52.617Z,938.01
2017-09-17T00:30:20.646Z,937.98
2017-09-17T00:30:48.719Z,938.02
2017-09-17T00:31:16.768Z,938
2017-09-17T00:31:44.821Z,938.04
2017-09-17T00:32:13.048Z,938
2017-09-17T00:32:41.307Z,938.01
2017-09-17T00:33:09.441Z,938.05
2017-09-17T00:33:37.552Z,938.01
2017-09-17T00:34:05.668Z,938.01
2017-09-17T00:34:33.591Z,938.03
2017-09-17T00:35:01.998Z,938.03
2017-09-17T00:35:30.239Z,938.02
2017-09-17T00:35:58.336Z,938.04
2017-09-17T00:36:26.679Z,938.02
2017-09-17T00:36:54.665Z,938.06
2017-09-17T00:37:22.907Z,938.06
2017-09-17T00:37:51.374Z,938.03
2017-09-17T00:38:19.385Z,938.03
2017-09-17T00:38:47.491Z,938.04
2017-09-17T00:39:15.645Z,938.04
2017-09-17T00:39:43.771Z,938.03
2017-09-17T00:40:11.899Z,938.06
2017-09-17T00:40:39.808Z,938.05
2017-09-17T00:41:08.683Z,938.06
2017-09-17T00:41:36.789Z,938.06
2017-09-17T00:42:04.866Z,938.07
2017-09-17T00:42:32.986Z,938.1
2017-09-17T00:43:00.990Z,938.11
2017-09-17T00:43:29.100Z,938.09
2017-09-17T00:43:57.119Z,938.12
2017-09-17T00:44:25.223Z,938.11
2017-09-17T00:44:53.128Z,938.1
2017-09-17T00:45:21.161Z,938.11
2017-09-17T00:45:49.163Z,938.12
2017-09-17T00:46:17.254Z,938.15
2017-09-17T00:46:45.488Z,938.12
2017-09-17T00:47:13.517Z,938.12
2017-09-17T00:47:41.505Z,938.1
2017-09-17T00:48:09.501Z,938.11
2017-09-17T00:48:38.391Z,938.12
2017-09-17T00:49:06.429Z,938.11
2017-09-17T00:49:34.543Z,938.09
2017-09-17T00:50:02.667Z,938.11
2017-09-17T00:50:30.696Z,938.11
2017-09-17T00:50:58.732Z,938.08
2017-09-17T00:51:26.948Z,938.06
2017-09-17T00:51:55.620Z,938.03
2017-09-17T00:52:23.606Z,938.05
2017-09-17T00:52:51.610Z,938.05
2017-09-17T00:53:19.693Z,938.04
2017-09-17T00:53:47.808Z,938.05
2017-09-17T00:54:16.370Z,938.07
2017-09-17T00:54:44.544Z,938.01
2017-09-17T00:55:12.701Z,938.03
2017-09-17T00:55:40.794Z,938.04
2017-09-17T00:56:08.903Z,938.05
2017-09-17T00:56:38.709Z,938.05
2017-09-17T00:57:07.357Z,938.03
2017-09-17T00:57:36.694Z,938.06
2017-09-17T00:58:05.293Z,938.05
2017-09-17T00:58:33.514Z,938.04
2017-09-17T00:59:01.667Z,938.02
2017-09-17T00:59:30.083Z,938.05
2017-09-17T00:59:58.256Z,938.05
2017-09-17T01:00:26.182Z,938.06
2017-09-17T01:00:55.088Z,938.06
2017-09-17T01:01:22.981Z,938.06
2017-09-17T01:01:50.782Z,938.09
2017-09-17T01:02:19.001Z,938.1
2017-09-17T01:02:46.812Z,938.1
2017-09-17T01:03:14.830Z,938.06
2017-09-17T01:03:42.921Z,938.08
2017-09-17T01:04:10.798Z,938.07
2017-09-17T01:04:38.814Z,938.07
2017-09-17T01:05:06.826Z,938.1
2017-09-17T01:05:34.835Z,938.08
2017-09-17T01:06:02.841Z,938.07
2017-09-17T01:06:30.738Z,938.11
2017-09-17T01:06:58.837Z,938.07
2017-09-17T01:07:27.717Z,938.05
2017-09-17T01:07:55.762Z,938.09
2017-09-17T01:08:23.675Z,938.09
2017-09-17T01:08:51.714Z,938.1
2017-09-17T01:09:19.739Z,938.1
2017-09-17T01:09:47.832Z,938.12
2017-09-17T01:10:15.830Z,938.14
2017-09-17T01:10:43.939Z,938.11
2017-09-17T01:11:12.045Z,938.13
2017-09-17T01:11:40.070Z,938.12
2017-09-17T01:12:08.165Z,938.11
2017-09-17T01:12:36.258Z,938.13
2017-09-17T01:13:04.160Z,938.13
2017-09-17T01:13:32.292Z,938.09
2017-09-17T01:14:00.300Z,938.08
2017-09-17T01:14:28.315Z,938.1
2017-09-17T01:14:56.368Z,938.1
2017-09-17T01:15:25.274Z,938.08
2017-09-17T01:15:53.297Z,938.11
2017-09-17T01:16:21.634Z,938.08
2017-09-17T01:16:49.745Z,938.09
2017-09-17T01:17:17.741Z,938.08
2017-09-17T01:17:45.851Z,938.11
2017-09-17T01:18:13.947Z,938.11
2017-09-17T01:18:41.994Z,938.1
2017-09-17T01:19:10.121Z,938.1
2017-09-17T01:19:38.222Z,938.09
2017-09-17T01:20:06.321Z,938.12
2017-09-17T01:20:34.220Z,938.1
2017-09-17T01:21:02.321Z,938.11
2017-09-17T01:21:30.449Z,938.09
2017-09-17T01:21:58.557Z,938.08
2017-09-17T01:22:26.670Z,938.09
2017-09-17T01:22:54.683Z,938.1
2017-09-17T01:23:22.790Z,938.09
2017-09-17T01:23:50.902Z,938.07
2017-09-17T01:24:19.234Z,938.08
2017-09-17T01:24:47.232Z,938.05
2017-09-17T01:25:15.248Z,938.06
2017-09-17T01:25:43.258Z,938.07
2017-09-17T01:26:11.356Z,938.09
2017-09-17T01:26:39.366Z,938.06
2017-09-17T01:27:07.468Z,938.08
2017-09-17T01:27:35.567Z,938.11
2017-09-17T01:28:03.571Z,938.04
2017-09-17T01:28:31.719Z,938.1
2017-09-17T01:28:59.629Z,938.07
2017-09-17T01:29:27.656Z,938.13
2017-09-17T01:29:55.786Z,938.09
2017-09-17T01:30:23.895Z,938.06
2017-09-17T01:30:51.707Z,938.1
2017-09-17T01:31:19.716Z,938.1
2017-09-17T01:31:47.831Z,938.13
2017-09-17T01:32:15.962Z,938.13
2017-09-17T01:32:43.870Z,938.09
2017-09-17T01:33:11.866Z,938.08
2017-09-17T01:33:39.993Z,938.1
2017-09-17T01:34:07.995Z,938.1
2017-09-17T01:34:36.087Z,938.07
2017-09-17T01:35:04.199Z,938.08
2017-09-17T01:35:32.325Z,938.08
2017-09-17T01:36:00.441Z,938.08
2017-09-17T01:36:28.554Z,938.09
2017-09-17T01:36:56.644Z,938.08
2017-09-17T01:37:24.765Z,938.04
2017-09-17T01:37:52.768Z,938.04
2017-09-17T01:38:20.778Z,938.05
2017-09-17T01:38:48.768Z,938.06
2017-09-17T01:39:16.872Z,938.03
2017-09-17T01:39:45.772Z,938.06
2017-09-17T01:40:13.908Z,937.99
2017-09-17T01:40:42.014Z,938.02
2017-09-17T01:41:10.112Z,938
2017-09-17T01:41:38.139Z,938
2017-09-17T01:42:06.232Z,937.99
2017-09-17T01:42:34.267Z,937.95
2017-09-17T01:43:02.256Z,938
2017-09-17T01:43:30.166Z,937.97
2017-09-17T01:43:58.275Z,937.95
2017-09-17T01:44:26.400Z,937.96
2017-09-17T01:44:54.434Z,937.93
2017-09-17T01:45:22.458Z,937.95
2017-09-17T01:45:50.534Z,937.97
2017-09-17T01:46:18.444Z,937.94
2017-09-17T01:46:46.556Z,937.92
2017-09-17T01:47:14.662Z,937.94
2017-09-17T01:47:42.757Z,937.9
2017-09-17T01:48:10.772Z,937.89
2017-09-17T01:48:38.879Z,937.9
2017-09-17T01:49:06.743Z,937.9
2017-09-17T01:49:34.846Z,937.89
2017-09-17T01:50:02.707Z,937.89
2017-09-17T01:50:30.706Z,937.84
2017-09-17T01:50:58.526Z,937.86
2017-09-17T01:51:26.636Z,937.86
2017-09-17T01:51:54.757Z,937.83
2017-09-17T01:52:22.759Z,937.86
2017-09-17T01:52:50.878Z,937.86
2017-09-17T01:53:18.995Z,937.85
2017-09-17T01:53:46.908Z,937.87
2017-09-17T01:54:14.863Z,937.87
2017-09-17T01:54:42.985Z,937.86
2017-09-17T01:55:11.002Z,937.87
2017-09-17T01:55:39.884Z,937.87
2017-09-17T01:56:07.972Z,937.84
2017-09-17T01:56:36.081Z,937.84
2017-09-17T01:57:04.963Z,937.79
2017-09-17T01:57:32.971Z,937.82
2017-09-17T01:58:00.953Z,937.81
2017-09-17T01:58:29.056Z,937.79
2017-09-17T01:58:57.167Z,937.78
2017-09-17T01:59:25.281Z,937.79
2017-09-17T01:59:53.199Z,937.78
2017-09-17T02:00:21.366Z,937.78
2017-09-17T02:00:49.474Z,937.75
2017-09-17T02:01:17.580Z,937.73
2017-09-17T02:01:45.701Z,937.74
2017-09-17T02:02:13.511Z,937.73
2017-09-17T02:02:41.788Z,937.74
2017-09-17T02:03:09.913Z,937.7
2017-09-17T02:03:38.057Z,937.7
2017-09-17T02:04:06.075Z,937.69
2017-09-17T02:04:33.992Z,937.69
2017-09-17T02:05:02.109Z,937.7
2017-09-17T02:05:30.249Z,937.71
2017-09-17T02:05:59.234Z,937.68
2017-09-17T02:06:27.327Z,937.74
2017-09-17T02:06:55.442Z,937.76
2017-09-17T02:07:23.262Z,937.79
2017-09-17T02:07:51.359Z,937.8
2017-09-17T02:08:19.188Z,937.77
2017-09-17T02:08:47.289Z,937.76
2017-09-17T02:09:15.413Z,937.77
2017-09-17T02:09:43.535Z,937.73
2017-09-17T02:10:11.555Z,937.7
2017-09-17T02:10:40.022Z,937.72
2017-09-17T02:11:08.307Z,937.77
2017-09-17T02:11:36.768Z,937.73
2017-09-17T02:12:04.750Z,937.76
2017-09-17T02:12:33.130Z,937.77
2017-09-17T02:13:01.349Z,937.78
2017-09-17T02:13:29.366Z,937.75
2017-09-17T02:13:57.481Z,937.77
2017-09-17T02:14:25.382Z,937.81
2017-09-17T02:14:53.475Z,937.79
2017-09-17T02:15:21.465Z,937.8
2017-09-17T02:15:49.793Z,937.81
2017-09-17T02:16:18.327Z,937.79
2017-09-17T02:16:46.717Z,937.78
2017-09-17T02:17:15.592Z,937.83
2017-09-17T02:17:43.984Z,937.81
2017-09-17T02:18:11.953Z,937.75
2017-09-17T02:18:39.881Z,937.81
2017-09-17T02:19:07.906Z,937.77
2017-09-17T02:19:35.923Z,937.78
2017-09-17T02:20:04.047Z,937.77
2017-09-17T02:20:32.144Z,937.77
2017-09-17T02:21:00.241Z,937.8
2017-09-17T02:21:28.360Z,937.78
2017-09-17T02:21:57.538Z,937.77
2017-09-17T02:22:25.542Z,937.76
2017-09-17T02:22:53.696Z,937.79
2017-09-17T02:23:21.786Z,937.76
2017-09-17T02:23:49.917Z,937.75
2017-09-17T02:24:17.998Z,937.76
2017-09-17T02:24:45.786Z,937.73
2017-09-17T02:25:13.775Z,937.72
2017-09-17T02:25:41.926Z,937.73
2017-09-17T02:26:10.003Z,937.69
2017-09-17T02:26:38.771Z,937.69
2017-09-17T02:27:06.878Z,937.66
2017-09-17T02:27:34.684Z,937.63
2017-09-17T02:28:02.783Z,937.67
2017-09-17T02:28:30.765Z,937.65
2017-09-17T02:28:58.691Z,937.62
2017-09-17T02:29:26.719Z,937.57
2017-09-17T02:29:54.703Z,937.57
2017-09-17T02:30:22.708Z,937.59
2017-09-17T02:30:51.626Z,937.58
2017-09-17T02:31:19.625Z,937.56
2017-09-17T02:31:47.519Z,937.55
2017-09-17T02:32:15.433Z,937.57
2017-09-17T02:32:43.466Z,937.55
2017-09-17T02:33:11.362Z,937.55
2017-09-17T02:33:39.364Z,937.53
2017-09-17T02:34:07.479Z,937.57
2017-09-17T02:34:35.479Z,937.56
2017-09-17T02:35:03.504Z,937.58
2017-09-17T02:35:31.732Z,937.55
2017-09-17T02:35:59.614Z,937.54
2017-09-17T02:36:28.415Z,937.54
2017-09-17T02:36:56.493Z,937.55
2017-09-17T02:37:24.299Z,937.55
2017-09-17T02:37:52.200Z,937.51
2017-09-17T02:38:21.868Z,937.54
2017-09-17T02:38:50.015Z,937.53
2017-09-17T02:39:18.114Z,937.51
2017-09-17T02:39:46.203Z,937.48
2017-09-17T02:40:14.152Z,937.51
2017-09-17T02:40:42.252Z,937.52
2017-09-17T02:41:10.356Z,937.5
2017-09-17T02:41:38.137Z,937.5
2017-09-17T02:42:06.043Z,937.49
2017-09-17T02:42:34.168Z,937.47
2017-09-17T02:43:02.306Z,937.47
2017-09-17T02:43:30.341Z,937.43
2017-09-17T02:43:58.375Z,937.46
2017-09-17T02:44:26.486Z,937.44
2017-09-17T02:44:54.624Z,937.43
2017-09-17T02:45:22.582Z,937.44
2017-09-17T02:45:50.680Z,937.43
2017-09-17T02:46:18.661Z,937.37
2017-09-17T02:46:46.588Z,937.39
2017-09-17T02:47:14.685Z,937.38
2017-09-17T02:47:42.787Z,937.38
2017-09-17T02:48:10.558Z,937.4
2017-09-17T02:48:38.557Z,937.37
2017-09-17T02:49:06.543Z,937.42
2017-09-17T02:49:34.613Z,937.37
2017-09-17T02:50:02.608Z,937.37
2017-09-17T02:50:30.831Z,937.43
2017-09-17T02:50:58.930Z,937.43
2017-09-17T02:51:26.834Z,937.42
2017-09-17T02:51:54.845Z,937.41
2017-09-17T02:52:22.539Z,937.41
2017-09-17T02:52:50.643Z,937.46
2017-09-17T02:53:18.555Z,937.44
2017-09-17T02:53:46.667Z,937.41
2017-09-17T02:54:14.778Z,937.44
2017-09-17T02:54:42.900Z,937.41
2017-09-17T02:55:11.070Z,937.42
2017-09-17T02:55:39.180Z,937.44
2017-09-17T02:56:07.208Z,937.42
2017-09-17T02:56:35.039Z,937.47
2017-09-17T02:57:03.686Z,937.46
2017-09-17T02:57:31.700Z,937.39
2017-09-17T02:57:59.710Z,937.41
2017-09-17T02:58:27.713Z,937.41
2017-09-17T02:58:55.835Z,937.39
2017-09-17T02:59:23.859Z,937.44
2017-09-17T02:59:51.968Z,937.41
2017-09-17T03:00:19.986Z,937.4
2017-09-17T03:00:48.007Z,937.39
2017-09-17T03:01:16.138Z,937.37
2017-09-17T03:01:44.243Z,937.37
2017-09-17T03:02:12.351Z,937.35
2017-09-17T03:02:40.324Z,937.36
2017-09-17T03:03:09.199Z,937.34
2017-09-17T03:03:37.201Z,937.36
2017-09-17T03:04:05.224Z,937.34
2017-09-17T03:04:33.239Z,937.35
2017-09-17T03:05:01.241Z,937.37
2017-09-17T03:05:29.182Z,937.4
2017-09-17T03:05:57.306Z,937.35
2017-09-17T03:06:25.414Z,937.36
2017-09-17T03:06:53.415Z,937.35
2017-09-17T03:07:21.420Z,937.34
2017-09-17T03:07:49.430Z,937.33
2017-09-17T03:08:17.455Z,937.34
2017-09-17T03:08:46.248Z,937.35
2017-09-17T03:09:14.362Z,937.31
2017-09-17T03:09:42.260Z,937.34
2017-09-17T03:10:10.277Z,937.3
2017-09-17T03:10:38.370Z,937.32
2017-09-17T03:11:06.463Z,937.28
2017-09-17T03:11:34.564Z,937.3
2017-09-17T03:12:02.736Z,937.28
2017-09-17T03:12:30.635Z,937.31
2017-09-17T03:12:58.652Z,937.33
2017-09-17T03:13:26.653Z,937.34
2017-09-17T03:13:54.745Z,937.34
2017-09-17T03:14:22.955Z,937.33
2017-09-17T03:14:51.836Z,937.36
2017-09-17T03:15:19.839Z,937.35
2017-09-17T03:15:47.963Z,937.36
2017-09-17T03:16:16.506Z,937.31
2017-09-17T03:16:44.769Z,937.32
2017-09-17T03:17:13.215Z,937.33
2017-09-17T03:17:41.578Z,937.33
2017-09-17T03:18:09.679Z,937.29
2017-09-17T03:18:37.813Z,937.28
2017-09-17T03:19:05.967Z,937.25
2017-09-17T03:19:34.831Z,937.26
2017-09-17T03:20:02.747Z,937.22
2017-09-17T03:20:30.878Z,937.2
2017-09-17T03:20:58.870Z,937.25
2017-09-17T03:21:26.889Z,937.2
2017-09-17T03:21:54.991Z,937.2
2017-09-17T03:22:23.096Z,937.22
2017-09-17T03:22:51.208Z,937.2
2017-09-17T03:23:19.319Z,937.18
2017-09-17T03:23:47.437Z,937.21
2017-09-17T03:24:15.551Z,937.2
2017-09-17T03:24:43.667Z,937.2
2017-09-17T03:25:11.787Z,937.18
2017-09-17T03:25:39.792Z,937.2
2017-09-17T03:26:07.725Z,937.21
2017-09-17T03:26:35.653Z,937.18
2017-09-17T03:27:03.673Z,937.17
2017-09-17T03:27:31.800Z,937.18
2017-09-17T03:27:59.805Z,937.18
2017-09-17T03:28:27.816Z,937.14
2017-09-17T03:28:55.810Z,937.18
2017-09-17T03:29:23.821Z,937.16
2017-09-17T03:29:51.944Z,937.14
2017-09-17T03:30:20.058Z,937.14
2017-09-17T03:30:48.428Z,937.13
2017-09-17T03:31:16.516Z,937.15
2017-09-17T03:31:44.613Z,937.14
2017-09-17T03:32:12.626Z,937.14
2017-09-17T03:32:40.735Z,937.12
2017-09-17T03:33:08.727Z,937.14
2017-09-17T03:33:36.765Z,937.14
2017-09-17T03:34:04.879Z,937.12
2017-09-17T03:34:32.953Z,937.13
2017-09-17T03:35:01.070Z,937.12
2017-09-17T03:35:29.188Z,937.11
2017-09-17T03:35:57.217Z,937.1
2017-09-17T03:36:25.245Z,937.1
2017-09-17T03:36:53.176Z,937.03
2017-09-17T03:37:21.260Z,937.06
2017-09-17T03:37:49.391Z,937.01
2017-09-17T03:38:17.495Z,937.03
2017-09-17T03:38:45.517Z,936.98
2017-09-17T03:39:13.524Z,936.98
2017-09-17T03:39:41.440Z,936.99
2017-09-17T03:40:09.360Z,936.98
2017-09-17T03:40:37.357Z,937
2017-09-17T03:41:05.384Z,936.98
2017-09-17T03:41:33.492Z,936.98
2017-09-17T03:42:01.622Z,936.98
2017-09-17T03:42:29.731Z,937
2017-09-17T03:42:57.853Z,936.99
2017-09-17T03:43:25.950Z,937.01
2017-09-17T03:43:54.029Z,937.05
2017-09-17T03:44:22.048Z,936.99
2017-09-17T03:44:50.051Z,937.03
2017-09-17T03:45:18.141Z,937.04
2017-09-17T03:45:46.247Z,937
2017-09-17T03:46:14.258Z,937
2017-09-17T03:46:42.349Z,936.97
2017-09-17T03:47:10.457Z,936.97
2017-09-17T03:47:38.578Z,936.94
2017-09-17T03:48:06.477Z,936.95
2017-09-17T03:48:35.337Z,936.92
2017-09-17T03:49:03.658Z,936.92
2017-09-17T03:49:31.766Z,936.93
2017-09-17T03:49:59.771Z,936.9
2017-09-17T03:50:28.319Z,936.92
2017-09-17T03:50:56.635Z,936.9
2017-09-17T03:51:24.685Z,936.92
2017-09-17T03:51:52.711Z,936.91
2017-09-17T03:52:20.816Z,936.9
2017-09-17T03:52:48.933Z,936.93
2017-09-17T03:53:17.040Z,936.9
2017-09-17T03:53:45.146Z,936.85
2017-09-17T03:54:13.237Z,936.9
2017-09-17T03:54:41.264Z,936.87
2017-09-17T03:55:09.256Z,936.89
2017-09-17T03:55:38.052Z,936.87
2017-09-17T03:56:06.163Z,936.84
2017-09-17T03:56:34.167Z,936.8
2017-09-17T03:57:02.200Z,936.8
2017-09-17T03:57:30.325Z,936.78
2017-09-17T03:57:58.337Z,936.79
2017-09-17T03:58:26.256Z,936.77
2017-09-17T03:58:54.258Z,936.74
2017-09-17T03:59:22.463Z,936.76
2017-09-17T03:59:50.452Z,936.76
2017-09-17T04:00:18.568Z,936.76
2017-09-17T04:00:46.770Z,936.78
2017-09-17T04:01:14.771Z,936.79
2017-09-17T04:01:42.875Z,936.76
2017-09-17T04:02:10.893Z,936.75
2017-09-17T04:02:39.026Z,936.74
2017-09-17T04:03:07.150Z,936.76
2017-09-17T04:03:35.175Z,936.73
2017-09-17T04:04:03.310Z,936.77
2017-09-17T04:04:31.009Z,936.71
2017-09-17T04:04:58.844Z,936.71
2017-09-17T04:05:26.955Z,936.73
2017-09-17T04:05:54.981Z,936.69
2017-09-17T04:06:23.082Z,936.7
2017-09-17T04:06:51.085Z,936.71
2017-09-17T04:07:19.173Z,936.67
2017-09-17T04:07:47.173Z,936.67
2017-09-17T04:08:15.268Z,936.67
2017-09-17T04:08:43.267Z,936.66
2017-09-17T04:09:11.400Z,936.69
2017-09-17T04:09:39.510Z,936.68
2017-09-17T04:10:07.626Z,936.66
2017-09-17T04:10:35.683Z,936.65
2017-09-17T04:11:03.800Z,936.66
2017-09-17T04:11:31.885Z,936.66
2017-09-17T04:12:00.788Z,936.63
2017-09-17T04:12:29.488Z,936.65
2017-09-17T04:12:57.601Z,936.66
2017-09-17T04:13:25.580Z,936.66
2017-09-17T04:13:53.681Z,936.63
2017-09-17T04:14:21.791Z,936.63
2017-09-17T04:14:49.807Z,936.62
2017-09-17T04:15:17.927Z,936.62
2017-09-17T04:15:45.925Z,936.59
2017-09-17T04:16:14.356Z,936.59
2017-09-17T04:16:42.359Z,936.59
2017-09-17T04:17:10.476Z,936.6
2017-09-17T04:17:38.579Z,936.59
2017-09-17T04:18:06.592Z,936.6
2017-09-17T04:18:34.582Z,936.57
2017-09-17T04:19:02.605Z,936.57
2017-09-17T04:19:30.630Z,936.56
2017-09-17T04:19:58.718Z,936.57
2017-09-17T04:20:26.819Z,936.57
2017-09-17T04:20:54.958Z,936.58
2017-09-17T04:21:22.971Z,936.57
2017-09-17T04:21:51.104Z,936.59
2017-09-17T04:22:19.432Z,936.54
2017-09-17T04:22:47.434Z,936.53
2017-09-17T04:23:16.310Z,936.54
2017-09-17T04:23:44.428Z,936.55
2017-09-17T04:24:12.535Z,936.52
2017-09-17T04:24:40.641Z,936.55
2017-09-17T04:25:08.565Z,936.54
2017-09-17T04:25:36.658Z,936.54
2017-09-17T04:26:04.781Z,936.53
2017-09-17T04:26:32.815Z,936.54
2017-09-17T04:27:00.914Z,936.54
2017-09-17T04:27:28.946Z,936.54
2017-09-17T04:27:56.962Z,936.51
2017-09-17T04:28:24.965Z,936.54
2017-09-17T04:28:53.061Z,936.52
2017-09-17T04:29:21.065Z,936.5
2017-09-17T04:29:49.051Z,936.48
2017-09-17T04:30:17.021Z,936.51
2017-09-17T04:30:45.137Z,936.5
2017-09-17T04:31:13.256Z,936.49
2017-09-17T04:31:41.387Z,936.53
2017-09-17T04:32:09.501Z,936.5
2017-09-17T04:32:37.422Z,936.47
2017-09-17T04:33:05.350Z,936.53
2017-09-17T04:33:33.731Z,936.51
2017-09-17T04:34:01.762Z,936.48
2017-09-17T04:34:29.833Z,936.47
2017-09-17T04:34:57.838Z,936.48
2017-09-17T04:35:25.860Z,936.49
2017-09-17T04:35:54.033Z,936.53
2017-09-17T04:36:23.043Z,936.5
2017-09-17T04:36:51.155Z,936.5
2017-09-17T04:37:19.073Z,936.51
2017-09-17T04:37:47.075Z,936.47
2017-09-17T04:38:15.193Z,936.48
2017-09-17T04:38:43.617Z,936.48
2017-09-17T04:39:11.528Z,936.46
2017-09-17T04:39:39.408Z,936.46
2017-09-17T04:40:07.519Z,936.47
2017-09-17T04:40:35.614Z,936.46
2017-09-17T04:41:03.729Z,936.48
2017-09-17T04:41:31.633Z,936.48
2017-09-17T04:41:59.976Z,936.49
2017-09-17T04:42:28.043Z,936.49
2017-09-17T04:42:55.956Z,936.46
2017-09-17T04:43:24.046Z,936.44
2017-09-17T04:43:52.055Z,936.45
2017-09-17T04:44:20.154Z,936.46
2017-09-17T04:44:48.147Z,936.49
2017-09-17T04:45:16.049Z,936.48
2017-09-17T04:45:43.949Z,936.5
2017-09-17T04:46:12.067Z,936.46
2017-09-17T04:46:40.152Z,936.45
2017-09-17T04:47:08.162Z,936.5
2017-09-17T04:47:36.289Z,936.47
2017-09-17T04:48:04.287Z,936.5
2017-09-17T04:48:32.618Z,936.49
2017-09-17T04:49:00.645Z,936.47
2017-09-17T04:49:28.739Z,936.42
2017-09-17T04:49:56.776Z,936.48
2017-09-17T04:50:24.782Z,936.45
2017-09-17T04:50:52.995Z,936.45
2017-09-17T04:51:21.098Z,936.47
2017-09-17T04:51:49.105Z,936.45
2017-09-17T04:52:17.010Z,936.45
2017-09-17T04:52:45.133Z,936.43
2017-09-17T04:53:14.780Z,936.43
2017-09-17T04:53:42.796Z,936.42
2017-09-17T04:54:10.820Z,936.41
2017-09-17T04:54:38.933Z,936.41
2017-09-17T04:55:07.038Z,936.46
2017-09-17T04:55:35.047Z,936.47
2017-09-17T04:56:03.161Z,936.43
2017-09-17T04:56:31.268Z,936.44
2017-09-17T04:56:59.262Z,936.42
2017-09-17T04:57:27.289Z,936.41
2017-09-17T04:57:55.257Z,936.42
2017-09-17T04:58:23.362Z,936.48
2017-09-17T04:58:51.477Z,936.41
2017-09-17T04:59:19.581Z,936.46
2017-09-17T04:59:47.725Z,936.44
2017-09-17T05:00:16.187Z,936.43
2017-09-17T05:00:44.293Z,936.45
2017-09-17T05:01:12.413Z,936.42
2017-09-17T05:01:40.524Z,936.43
2017-09-17T05:02:08.639Z,936.43
2017-09-17T05:02:36.661Z,936.4
2017-09-17T05:03:05.081Z,936.44
2017-09-17T05:03:33.090Z,936.44
2017-09-17T05:04:01.183Z,936.43
2017-09-17T05:04:29.196Z,936.4
2017-09-17T05:04:57.215Z,936.44
2017-09-17T05:05:25.559Z,936.43
2017-09-17T05:05:53.664Z,936.44
2017-09-17T05:06:21.753Z,936.42
2017-09-17T05:06:49.742Z,936.45
2017-09-17T05:07:17.861Z,936.41
2017-09-17T05:07:45.764Z,936.42
2017-09-17T05:08:13.775Z,936.42
2017-09-17T05:08:41.796Z,936.41
2017-09-17T05:09:09.813Z,936.43
2017-09-17T05:09:37.936Z,936.43
2017-09-17T05:10:06.391Z,936.39
2017-09-17T05:10:34.417Z,936.38
2017-09-17T05:11:03.293Z,936.37
2017-09-17T05:11:31.372Z,936.39
2017-09-17T05:11:59.582Z,936.39
2017-09-17T05:12:27.479Z,936.38
2017-09-17T05:12:55.468Z,936.39
2017-09-17T05:13:23.561Z,936.33
2017-09-17T05:13:51.685Z,936.39
2017-09-17T05:14:19.805Z,936.36
2017-09-17T05:14:48.753Z,936.36
2017-09-17T05:15:17.299Z,936.38
2017-09-17T05:15:45.738Z,936.33
2017-09-17T05:16:14.228Z,936.33
2017-09-17T05:16:42.717Z,936.34
2017-09-17T05:17:11.297Z,936.34
2017-09-17T05:17:39.832Z,936.37
2017-09-17T05:18:08.430Z,936.37
2017-09-17T05:18:36.834Z,936.37
2017-09-17T05:19:04.915Z,936.39
2017-09-17T05:19:33.425Z,936.36
2017-09-17T05:20:01.905Z,936.34
2017-09-17T05:20:30.576Z,936.35
2017-09-17T05:20:59.240Z,936.32
2017-09-17T05:21:28.052Z,936.34
2017-09-17T05:21:56.737Z,936.34
2017-09-17T05:22:25.324Z,936.34
2017-09-17T05:22:53.622Z,936.3
2017-09-17T05:23:22.093Z,936.33
2017-09-17T05:23:50.563Z,936.32
2017-09-17T05:24:19.737Z,936.33
2017-09-17T05:24:48.039Z,936.27
2017-09-17T05:25:16.283Z,936.3
2017-09-17T05:25:45.154Z,936.31
2017-09-17T05:26:13.457Z,936.33
2017-09-17T05:26:41.868Z,936.33
2017-09-17T05:27:10.315Z,936.32
2017-09-17T05:27:39.121Z,936.32
2017-09-17T05:28:07.979Z,936.34
2017-09-17T05:28:36.523Z,936.34
2017-09-17T05:29:06.036Z,936.31
2017-09-17T05:29:34.698Z,936.33
2017-09-17T05:30:03.232Z,936.33
2017-09-17T05:30:31.847Z,936.3
2017-09-17T05:31:00.329Z,936.28
2017-09-17T05:31:28.972Z,936.28
2017-09-17T05:31:57.700Z,936.27
2017-09-17T05:32:26.420Z,936.28
2017-09-17T05:32:55.073Z,936.3
2017-09-17T05:33:23.735Z,936.29
2017-09-17T05:33:52.183Z,936.27
2017-09-17T05:34:20.697Z,936.28
2017-09-17T05:34:49.227Z,936.3
2017-09-17T05:35:17.752Z,936.29
2017-09-17T05:35:46.405Z,936.25
2017-09-17T05:36:15.092Z,936.29
2017-09-17T05:36:43.542Z,936.25
2017-09-17T05:37:12.162Z,936.28
2017-09-17T05:37:40.733Z,936.25
2017-09-17T05:38:09.279Z,936.24
2017-09-17T05:38:37.998Z,936.24
2017-09-17T05:39:06.510Z,936.21
2017-09-17T05:39:35.129Z,936.22
2017-09-17T05:40:03.689Z,936.23
2017-09-17T05:40:32.067Z,936.23
2017-09-17T05:41:00.869Z,936.2
2017-09-17T05:41:29.392Z,936.22
2017-09-17T05:41:57.833Z,936.25
2017-09-17T05:42:26.161Z,936.23
2017-09-17T05:42:54.648Z,936.17
2017-09-17T05:43:22.958Z,936.19
2017-09-17T05:43:51.436Z,936.17
2017-09-17T05:44:20.019Z,936.2
2017-09-17T05:44:48.550Z,936.18
2017-09-17T05:45:16.714Z,936.17
2017-09-17T05:45:45.211Z,936.17
2017-09-17T05:46:13.860Z,936.18
2017-09-17T05:46:41.956Z,936.2
2017-09-17T05:47:10.451Z,936.16
2017-09-17T05:47:38.897Z,936.16
2017-09-17T05:48:07.036Z,936.19
2017-09-17T05:48:35.321Z,936.18
2017-09-17T05:49:03.956Z,936.15
2017-09-17T05:49:32.297Z,936.12
2017-09-17T05:50:00.614Z,936.13
2017-09-17T05:50:28.971Z,936.14
2017-09-17T05:50:57.381Z,936.17
2017-09-17T05:51:25.700Z,936.14
2017-09-17T05:51:54.010Z,936.18
2017-09-17T05:52:22.519Z,936.15
2017-09-17T05:52:51.053Z,936.15